createdAt,value
2022-10-28T00:02:24.116Z,13.47
2022-10-28T00:04:54.912Z,13.46
2022-10-28T00:07:25.680Z,13.45
2022-10-28T00:09:56.375Z,13.42
2022-10-28T00:12:27.308Z,13.34
2022-10-28T00:14:58.003Z,13.32
2022-10-28T00:17:28.725Z,13.29
2022-10-28T00:19:59.486Z,13.31
2022-10-28T00:22:30.432Z,13.35
2022-10-28T00:25:01.844Z,13.38
2022-10-28T00:27:33.296Z,13.32
2022-10-28T00:30:04.363Z,13.28
2022-10-28T00:32:35.028Z,13.25
2022-10-28T00:35:06.626Z,13.25
2022-10-28T00:37:37.608Z,13.25
2022-10-28T00:40:10.553Z,13.25
2022-10-28T00:42:41.138Z,13.28
2022-10-28T00:45:14.046Z,13.33
2022-10-28T00:47:52.700Z,13.40
2022-10-28T00:50:48.291Z,13.45
2022-10-28T00:53:23.821Z,13.50
2022-10-28T00:55:55.473Z,13.50
2022-10-28T00:58:28.810Z,13.48
2022-10-28T01:00:59.925Z,13.46
2022-10-28T01:03:30.668Z,13.42
2022-10-28T01:06:02.470Z,13.41
2022-10-28T01:08:33.394Z,13.36
2022-10-28T01:11:18.337Z,13.31
2022-10-28T01:14:02.770Z,13.30
2022-10-28T01:16:41.162Z,13.28
2022-10-28T01:19:34.663Z,13.25
2022-10-28T01:22:21.275Z,13.29
2022-10-28T01:25:08.801Z,13.37
2022-10-28T01:28:09.134Z,13.45
2022-10-28T01:30:58.182Z,13.49
2022-10-28T01:33:36.087Z,13.46
2022-10-28T01:36:15.619Z,13.49
2022-10-28T01:38:53.413Z,13.50
2022-10-28T01:41:31.995Z,13.49
2022-10-28T01:44:02.641Z,13.52
2022-10-28T01:46:36.314Z,13.48
2022-10-28T01:49:15.339Z,13.42
2022-10-28T01:51:50.327Z,13.36
2022-10-28T01:54:25.744Z,13.35
2022-10-28T01:56:59.143Z,13.37
2022-10-28T01:59:32.117Z,13.45
2022-10-28T02:04:38.616Z,13.59
2022-10-28T02:07:09.521Z,13.63
2022-10-28T02:09:57.902Z,13.68
2022-10-28T02:12:33.060Z,13.72
2022-10-28T02:15:32.748Z,13.75
2022-10-28T02:18:13.985Z,13.75
2022-10-28T02:20:52.405Z,13.78
2022-10-28T02:23:33.811Z,13.75
2022-10-28T02:26:11.067Z,13.67
2022-10-28T02:28:49.449Z,13.67
2022-10-28T02:31:27.772Z,13.69
2022-10-28T02:34:01.831Z,13.69
2022-10-28T02:36:35.814Z,13.69
2022-10-28T02:39:07.849Z,13.70
2022-10-28T02:41:44.528Z,13.75
2022-10-28T02:44:20.551Z,13.78
2022-10-28T02:46:55.605Z,13.79
2022-10-28T02:49:28.883Z,13.74
2022-10-28T02:52:01.730Z,13.73
2022-10-28T02:54:37.352Z,13.73
2022-10-28T02:57:12.137Z,13.76
2022-10-28T02:59:43.501Z,13.78
2022-10-28T03:02:14.117Z,13.80
2022-10-28T03:04:44.752Z,13.84
2022-10-28T03:07:15.381Z,13.91
2022-10-28T03:09:46.280Z,13.97
2022-10-28T03:12:17.008Z,14.02
2022-10-28T03:14:47.651Z,14.07
2022-10-28T03:17:18.325Z,14.12
2022-10-28T03:19:49.038Z,14.17
2022-10-28T03:22:19.638Z,14.23
2022-10-28T03:24:50.256Z,14.26
2022-10-28T03:27:20.898Z,14.29
2022-10-28T03:29:51.537Z,14.31
2022-10-28T03:34:57.858Z,14.36
2022-10-28T03:37:28.486Z,14.39
2022-10-28T03:40:01.330Z,14.40
2022-10-28T03:42:35.431Z,14.42
2022-10-28T03:45:10.185Z,14.45
2022-10-28T03:47:40.920Z,14.46
2022-10-28T03:50:12.372Z,14.49
2022-10-28T03:52:45.305Z,14.51
2022-10-28T03:55:16.221Z,14.53
2022-10-28T03:57:46.847Z,14.55
2022-10-28T04:00:19.367Z,14.56
2022-10-28T04:02:52.506Z,14.59
2022-10-28T04:05:23.677Z,14.58
2022-10-28T04:07:55.249Z,14.58
2022-10-28T04:10:26.181Z,14.59
2022-10-28T04:13:02.499Z,14.59
2022-10-28T04:15:33.294Z,14.59
2022-10-28T04:18:04.584Z,14.59
2022-10-28T04:20:35.535Z,14.57
2022-10-28T04:23:06.226Z,14.57
2022-10-28T04:25:36.868Z,14.57
2022-10-28T04:28:07.612Z,14.57
2022-10-28T04:30:38.641Z,14.58
2022-10-28T04:33:10.135Z,14.57
2022-10-28T04:35:42.953Z,14.55
2022-10-28T04:38:15.381Z,14.52
2022-10-28T04:40:47.880Z,14.44
2022-10-28T04:43:18.608Z,14.44
2022-10-28T04:45:49.617Z,14.45
2022-10-28T04:48:20.269Z,14.46
2022-10-28T04:50:51.222Z,14.47
2022-10-28T04:53:21.947Z,14.48
2022-10-28T04:55:52.649Z,14.50
2022-10-28T04:58:23.358Z,14.50
2022-10-28T05:00:53.950Z,14.52
2022-10-28T05:03:24.705Z,14.52
2022-10-28T05:05:55.514Z,14.52
2022-10-28T05:08:26.373Z,14.52
2022-10-28T05:10:57.111Z,14.53
2022-10-28T05:13:27.759Z,14.55
2022-10-28T05:15:58.467Z,14.55
2022-10-28T05:18:29.272Z,14.55
2022-10-28T05:20:59.941Z,14.56
2022-10-28T05:23:31.099Z,14.56
2022-10-28T05:26:02.024Z,14.59
2022-10-28T05:28:32.797Z,14.63
2022-10-28T05:31:03.431Z,14.66
2022-10-28T05:33:34.742Z,14.67
2022-10-28T05:36:05.932Z,14.73
2022-10-28T05:38:36.646Z,14.85
2022-10-28T05:41:07.696Z,14.96
2022-10-28T05:43:38.546Z,14.95
2022-10-28T05:46:10.405Z,14.86
2022-10-28T05:48:41.018Z,14.79
2022-10-28T05:51:11.744Z,14.73
2022-10-28T05:53:44.158Z,14.66
2022-10-28T05:56:14.893Z,14.59
2022-10-28T05:58:45.589Z,14.53
2022-10-28T06:01:16.431Z,14.47
2022-10-28T06:03:47.317Z,14.42
2022-10-28T06:06:18.084Z,14.39
2022-10-28T06:08:48.801Z,14.36
2022-10-28T06:11:17.910Z,14.33
2022-10-28T06:13:48.540Z,14.31
2022-10-28T06:16:19.281Z,14.29
2022-10-28T06:18:50.035Z,14.29
2022-10-28T06:21:20.772Z,14.28
2022-10-28T06:23:51.807Z,14.27
2022-10-28T06:26:22.477Z,14.24
2022-10-28T06:28:53.209Z,14.21
2022-10-28T06:31:23.896Z,14.18
2022-10-28T06:33:54.629Z,14.18
2022-10-28T06:36:25.539Z,14.17
2022-10-28T06:38:56.291Z,14.17
2022-10-28T06:41:26.988Z,14.17
2022-10-28T06:43:57.758Z,14.18
2022-10-28T06:46:28.519Z,14.20
2022-10-28T06:49:03.229Z,14.24
2022-10-28T06:51:34.276Z,14.28
2022-10-28T06:54:05.237Z,14.31
2022-10-28T06:56:51.758Z,14.35
2022-10-28T06:59:39.300Z,14.49
2022-10-28T07:02:28.583Z,14.73
2022-10-28T07:05:30.688Z,14.93
2022-10-28T07:08:24.901Z,15.15
2022-10-28T07:11:45.714Z,15.33
2022-10-28T07:14:36.479Z,15.61
2022-10-28T07:17:37.976Z,15.88
2022-10-28T07:20:46.050Z,16.18
2022-10-28T07:27:01.629Z,16.67
2022-10-28T07:30:02.673Z,16.84
2022-10-28T07:36:11.910Z,17.06
2022-10-28T07:38:53.427Z,17.13
2022-10-28T07:41:39.760Z,17.19
2022-10-28T07:44:22.405Z,17.33
2022-10-28T07:47:07.609Z,17.50
2022-10-28T07:49:50.723Z,17.66
2022-10-28T07:53:05.169Z,17.85
2022-10-28T07:56:17.743Z,17.95
2022-10-28T07:59:08.978Z,18.06
2022-10-28T08:02:14.373Z,18.12
2022-10-28T08:05:13.196Z,18.21
2022-10-28T08:08:17.935Z,18.31
2022-10-28T08:11:32.004Z,18.45
2022-10-28T08:14:26.668Z,18.50
2022-10-28T08:17:37.623Z,18.44
2022-10-28T08:20:25.800Z,18.38
2022-10-28T08:23:33.387Z,18.35
2022-10-28T08:26:18.444Z,18.41
2022-10-28T08:29:06.755Z,18.51
2022-10-28T08:31:58.686Z,18.58
2022-10-28T08:34:43.628Z,18.59
2022-10-28T08:37:46.440Z,18.56
2022-10-28T08:40:56.479Z,18.56
2022-10-28T08:43:57.768Z,18.61
2022-10-28T08:46:57.136Z,18.59
2022-10-28T08:49:49.364Z,18.56
2022-10-28T08:52:43.383Z,18.49
2022-10-28T08:55:55.703Z,18.42
2022-10-28T08:58:59.298Z,18.45
2022-10-28T09:01:59.431Z,18.61
2022-10-28T09:04:52.632Z,18.72
2022-10-28T09:07:45.339Z,18.72
2022-10-28T09:10:36.219Z,18.74
2022-10-28T09:13:38.522Z,18.73
2022-10-28T09:19:55.457Z,18.58
2022-10-28T09:22:55.358Z,18.59
2022-10-28T09:25:53.446Z,18.63
2022-10-28T09:32:21.036Z,18.77
2022-10-28T09:35:20.464Z,19.06
2022-10-28T09:38:24.217Z,19.30
2022-10-28T09:41:22.437Z,19.54
2022-10-28T09:44:11.706Z,19.77
2022-10-28T09:47:12.783Z,19.82
2022-10-28T09:49:59.034Z,19.76
2022-10-28T09:52:58.434Z,19.66
2022-10-28T09:58:59.161Z,19.30
2022-10-28T10:04:59.846Z,19.04
2022-10-28T10:07:37.855Z,18.99
2022-10-28T10:10:16.540Z,18.94
2022-10-28T10:12:51.480Z,18.95
2022-10-28T10:15:31.049Z,18.95
2022-10-28T10:18:05.109Z,19.09
2022-10-28T10:20:50.171Z,19.23
2022-10-28T10:23:28.933Z,19.35
2022-10-28T10:26:06.768Z,19.46
2022-10-28T10:28:45.338Z,19.51
2022-10-28T10:31:23.116Z,19.55
2022-10-28T10:33:57.144Z,19.62
2022-10-28T10:36:31.418Z,19.65
2022-10-28T10:39:04.145Z,19.62
2022-10-28T10:41:38.295Z,19.54
2022-10-28T10:44:32.746Z,19.55
2022-10-28T10:47:22.718Z,19.41
2022-10-28T10:49:55.755Z,19.27
2022-10-28T10:52:28.498Z,19.28
2022-10-28T10:55:06.599Z,19.27
2022-10-28T10:57:36.453Z,19.28
2022-10-28T11:00:16.761Z,19.28
2022-10-28T11:02:52.231Z,19.24
2022-10-28T11:05:35.759Z,19.24
2022-10-28T11:08:22.786Z,19.21
2022-10-28T11:11:06.623Z,19.15
2022-10-28T11:13:41.015Z,19.05
2022-10-28T11:16:23.288Z,18.97
2022-10-28T11:18:55.197Z,18.88
2022-10-28T11:21:52.426Z,18.86
2022-10-28T11:24:40.139Z,18.82
2022-10-28T11:27:19.084Z,18.69
2022-10-28T11:29:50.315Z,18.58
2022-10-28T11:32:32.014Z,18.48
2022-10-28T11:35:18.401Z,18.38
2022-10-28T11:38:00.396Z,18.30
2022-10-28T11:40:36.388Z,18.22
2022-10-28T11:43:20.786Z,18.17
2022-10-28T11:45:59.641Z,18.16
2022-10-28T11:48:47.703Z,18.22
2022-10-28T11:51:31.198Z,18.33
2022-10-28T11:54:26.543Z,18.39
2022-10-28T11:57:04.929Z,18.41
2022-10-28T12:00:15.852Z,18.46
2022-10-28T12:03:02.396Z,18.53
2022-10-28T12:05:42.419Z,18.68
2022-10-28T12:08:45.243Z,18.78
2022-10-28T12:11:28.787Z,18.82
2022-10-28T12:14:06.284Z,18.86
2022-10-28T12:16:44.836Z,18.90
2022-10-28T12:19:20.646Z,18.95
2022-10-28T12:22:00.162Z,19.05
2022-10-28T12:24:36.082Z,19.14
2022-10-28T12:27:18.160Z,19.22
2022-10-28T12:29:54.850Z,19.26
2022-10-28T12:32:30.734Z,19.25
2022-10-28T12:35:07.409Z,19.22
2022-10-28T12:37:47.792Z,19.22
2022-10-28T12:40:23.364Z,19.23
2022-10-28T12:42:58.582Z,19.26
2022-10-28T12:45:33.301Z,19.29
2022-10-28T12:48:13.166Z,19.31
2022-10-28T12:50:50.739Z,19.30
2022-10-28T12:53:31.358Z,19.27
2022-10-28T12:56:03.873Z,19.20
2022-10-28T12:58:42.054Z,19.17
2022-10-28T13:01:15.351Z,19.10
2022-10-28T13:03:46.335Z,19.05
2022-10-28T13:06:59.056Z,18.98
2022-10-28T13:09:43.054Z,18.90
2022-10-28T13:12:43.048Z,18.84
2022-10-28T13:15:30.886Z,18.81
2022-10-28T13:18:19.647Z,18.82
2022-10-28T13:21:01.996Z,18.83
2022-10-28T13:23:40.744Z,18.83
2022-10-28T13:26:22.859Z,18.84
2022-10-28T13:28:56.402Z,18.83
2022-10-28T13:31:40.481Z,18.81
2022-10-28T13:34:13.487Z,18.78
2022-10-28T13:36:46.641Z,18.77
2022-10-28T13:39:40.731Z,18.75
2022-10-28T13:42:48.234Z,18.73
2022-10-28T13:45:50.401Z,18.76
2022-10-28T13:48:48.553Z,18.78
2022-10-28T13:51:48.180Z,18.80
2022-10-28T13:54:32.567Z,18.82
2022-10-28T13:57:17.827Z,18.83
2022-10-28T13:59:54.942Z,18.82
2022-10-28T14:02:36.938Z,18.80
2022-10-28T14:05:10.633Z,18.76
2022-10-28T14:07:53.516Z,18.73
2022-10-28T14:10:27.877Z,18.69
2022-10-28T14:13:01.286Z,18.64
2022-10-28T14:15:35.117Z,18.58
2022-10-28T14:18:42.236Z,18.52
2022-10-28T14:21:11.201Z,18.45
2022-10-28T14:24:13.124Z,18.39
2022-10-28T14:27:26.837Z,18.32
2022-10-28T14:30:16.414Z,18.26
2022-10-28T14:32:57.735Z,18.20
2022-10-28T14:35:34.677Z,18.13
2022-10-28T14:38:34.628Z,18.05
2022-10-28T14:41:37.729Z,17.96
2022-10-28T14:44:17.563Z,17.88
2022-10-28T14:47:03.481Z,17.82
2022-10-28T14:49:36.495Z,17.76
2022-10-28T14:52:13.605Z,17.69
2022-10-28T14:54:49.543Z,17.61
2022-10-28T14:57:30.900Z,17.56
2022-10-28T15:00:09.281Z,17.51
2022-10-28T15:02:40.739Z,17.47
2022-10-28T15:05:20.379Z,17.43
2022-10-28T15:07:52.189Z,17.39
2022-10-28T15:10:28.065Z,17.35
2022-10-28T15:13:00.563Z,17.31
2022-10-28T15:15:33.512Z,17.28
2022-10-28T15:18:21.324Z,17.25
2022-10-28T15:21:07.695Z,17.21
2022-10-28T15:23:39.094Z,17.15
2022-10-28T15:26:12.045Z,17.11
2022-10-28T15:28:44.521Z,17.09
2022-10-28T15:31:17.219Z,17.05
2022-10-28T15:33:48.101Z,17.03
2022-10-28T15:36:22.167Z,17.01
2022-10-28T15:39:05.860Z,16.98
2022-10-28T15:41:49.517Z,16.94
2022-10-28T15:44:31.909Z,16.89
2022-10-28T15:47:05.768Z,16.85
2022-10-28T15:49:41.826Z,16.81
2022-10-28T15:52:34.804Z,16.75
2022-10-28T15:55:23.751Z,16.69
2022-10-28T15:58:04.223Z,16.65
2022-10-28T16:00:35.695Z,16.61
2022-10-28T16:03:08.392Z,16.57
2022-10-28T16:05:56.534Z,16.53
2022-10-28T16:08:30.689Z,16.49
2022-10-28T16:11:07.226Z,16.45
2022-10-28T16:13:42.121Z,16.43
2022-10-28T16:16:15.306Z,16.41
2022-10-28T16:18:49.173Z,16.42
2022-10-28T16:21:23.160Z,16.43
2022-10-28T16:23:56.459Z,16.44
2022-10-28T16:26:27.841Z,16.44
2022-10-28T16:28:58.616Z,16.46
2022-10-28T16:31:31.856Z,16.47
2022-10-28T16:34:03.082Z,16.49
2022-10-28T16:36:34.062Z,16.51
2022-10-28T16:39:04.807Z,16.53
2022-10-28T16:41:36.207Z,16.53
2022-10-28T16:44:10.693Z,16.55
2022-10-28T16:46:41.382Z,16.56
2022-10-28T16:49:12.026Z,16.57
2022-10-28T16:51:42.849Z,16.58
2022-10-28T16:54:13.736Z,16.57
2022-10-28T16:56:44.471Z,16.58
2022-10-28T16:59:15.784Z,16.58
2022-10-28T17:01:46.575Z,16.58
2022-10-28T17:04:17.428Z,16.57
2022-10-28T17:06:48.123Z,16.57
2022-10-28T17:09:19.006Z,16.56
2022-10-28T17:11:49.883Z,16.55
2022-10-28T17:14:20.543Z,16.55
2022-10-28T17:16:51.283Z,16.54
2022-10-28T17:19:21.961Z,16.53
2022-10-28T17:21:52.804Z,16.53
2022-10-28T17:24:23.528Z,16.53
2022-10-28T17:26:54.317Z,16.52
2022-10-28T17:29:25.253Z,16.52
2022-10-28T17:31:55.897Z,16.51
2022-10-28T17:34:26.709Z,16.50
2022-10-28T17:36:57.492Z,16.50
2022-10-28T17:39:28.266Z,16.49
2022-10-28T17:41:58.915Z,16.48
2022-10-28T17:44:29.839Z,16.47
2022-10-28T17:47:00.753Z,16.46
2022-10-28T17:49:34.384Z,16.45
2022-10-28T17:52:05.056Z,16.43
2022-10-28T17:54:35.694Z,16.42
2022-10-28T17:57:06.728Z,16.40
2022-10-28T17:59:37.479Z,16.39
2022-10-28T18:02:08.261Z,16.37
2022-10-28T18:04:39.350Z,16.37
2022-10-28T18:07:10.266Z,16.34
2022-10-28T18:09:42.279Z,16.32
2022-10-28T18:12:13.052Z,16.32
2022-10-28T18:14:43.709Z,16.31
2022-10-28T18:17:17.333Z,16.30
2022-10-28T18:19:48.023Z,16.28
2022-10-28T18:22:18.844Z,16.27
2022-10-28T18:24:50.164Z,16.26
2022-10-28T18:27:20.968Z,16.24
2022-10-28T18:29:51.768Z,16.23
2022-10-28T18:32:24.142Z,16.20
2022-10-28T18:34:55.030Z,16.17
2022-10-28T18:37:27.742Z,16.15
2022-10-28T18:39:58.666Z,16.14
2022-10-28T18:42:30.167Z,16.12
2022-10-28T18:45:00.886Z,16.08
2022-10-28T18:47:32.508Z,16.05
2022-10-28T18:50:03.250Z,15.97
2022-10-28T18:52:33.896Z,15.88
2022-10-28T18:55:05.204Z,15.82
2022-10-28T18:57:36.088Z,15.74
2022-10-28T19:00:23.681Z,15.69
2022-10-28T19:02:55.535Z,15.63
2022-10-28T19:05:26.489Z,15.57
2022-10-28T19:07:57.778Z,15.52
2022-10-28T19:10:28.743Z,15.47
2022-10-28T19:12:59.657Z,15.41
2022-10-28T19:15:30.486Z,15.35
2022-10-28T19:18:01.295Z,15.31
2022-10-28T19:20:31.990Z,15.26
2022-10-28T19:23:02.614Z,15.22
2022-10-28T19:25:33.229Z,15.19
2022-10-28T19:28:04.055Z,15.17
2022-10-28T19:30:36.261Z,15.11
2022-10-28T19:33:06.948Z,15.08
2022-10-28T19:35:37.539Z,15.06
2022-10-28T19:38:08.104Z,15.06
2022-10-28T19:40:38.943Z,15.04
2022-10-28T19:43:09.745Z,15.05
2022-10-28T19:45:40.476Z,15.05
2022-10-28T19:48:11.130Z,15.07
2022-10-28T19:50:49.078Z,15.08
2022-10-28T19:53:19.972Z,15.10
2022-10-28T19:55:50.666Z,15.13
2022-10-28T19:58:21.620Z,15.15
2022-10-28T20:00:56.840Z,15.19
2022-10-28T20:03:30.453Z,15.22
2022-10-28T20:06:07.834Z,15.25
2022-10-28T20:08:40.151Z,15.28
2022-10-28T20:11:12.875Z,15.29
2022-10-28T20:13:45.715Z,15.29
2022-10-28T20:16:17.855Z,15.29
2022-10-28T20:18:49.170Z,15.32
2022-10-28T20:21:21.742Z,15.33
2022-10-28T20:23:54.714Z,15.37
2022-10-28T20:26:27.759Z,15.40
2022-10-28T20:28:59.459Z,15.42
2022-10-28T20:31:31.931Z,15.46
2022-10-28T20:34:04.043Z,15.48
2022-10-28T20:36:36.725Z,15.50
2022-10-28T20:39:10.805Z,15.51
2022-10-28T20:41:43.657Z,15.53
2022-10-28T20:44:14.866Z,15.51
2022-10-28T20:46:47.942Z,15.50
2022-10-28T20:49:18.899Z,15.46
2022-10-28T20:51:49.780Z,15.41
2022-10-28T20:54:20.402Z,15.37
2022-10-28T20:56:51.183Z,15.36
2022-10-28T20:59:21.822Z,15.36
2022-10-28T21:01:52.739Z,15.36
2022-10-28T21:04:24.016Z,15.36
2022-10-28T21:06:54.907Z,15.33
2022-10-28T21:09:25.869Z,15.30
2022-10-28T21:11:56.628Z,15.26
2022-10-28T21:14:27.501Z,15.19
2022-10-28T21:17:01.155Z,15.14
2022-10-28T21:19:31.959Z,15.11
2022-10-28T21:22:02.723Z,15.09
2022-10-28T21:24:33.410Z,15.06
2022-10-28T21:27:04.252Z,15.04
2022-10-28T21:29:34.992Z,14.98
2022-10-28T21:32:06.185Z,14.92
2022-10-28T21:34:36.890Z,14.87
2022-10-28T21:37:07.566Z,14.83
2022-10-28T21:39:39.822Z,14.79
2022-10-28T21:42:09.116Z,14.77
2022-10-28T21:44:39.842Z,14.73
2022-10-28T21:47:10.614Z,14.67
2022-10-28T21:49:41.451Z,14.59
2022-10-28T21:52:12.115Z,14.55
2022-10-28T21:54:42.919Z,14.52
2022-10-28T21:57:14.964Z,14.50
2022-10-28T21:59:49.659Z,14.50
2022-10-28T22:02:20.551Z,14.49
2022-10-28T22:04:51.566Z,14.46
2022-10-28T22:07:22.261Z,14.44
2022-10-28T22:09:53.161Z,14.43
2022-10-28T22:12:23.791Z,14.42
2022-10-28T22:14:54.595Z,14.38
2022-10-28T22:17:25.226Z,14.36
2022-10-28T22:19:55.897Z,14.34
2022-10-28T22:22:26.896Z,14.33
2022-10-28T22:24:57.534Z,14.31
2022-10-28T22:27:28.121Z,14.28
2022-10-28T22:29:58.995Z,14.21
2022-10-28T22:32:29.743Z,14.19
2022-10-28T22:35:00.576Z,14.18
2022-10-28T22:37:31.237Z,14.16
2022-10-28T22:40:01.979Z,14.15
2022-10-28T22:42:32.598Z,14.13
2022-10-28T22:45:03.287Z,14.09
2022-10-28T22:47:33.893Z,14.04
2022-10-28T22:50:05.088Z,14.00
2022-10-28T22:52:35.807Z,13.99
2022-10-28T22:55:07.273Z,13.96
2022-10-28T22:57:37.856Z,13.95
2022-10-28T23:00:11.066Z,13.93
2022-10-28T23:02:41.955Z,13.91
2022-10-28T23:05:12.946Z,13.92
2022-10-28T23:07:43.590Z,13.90
2022-10-28T23:10:14.347Z,13.86
2022-10-28T23:12:45.068Z,13.84
2022-10-28T23:15:16.011Z,13.86
2022-10-28T23:17:51.020Z,13.89
2022-10-28T23:20:22.537Z,13.89
2022-10-28T23:22:55.774Z,13.90
2022-10-28T23:25:26.483Z,13.87
2022-10-28T23:27:57.647Z,13.86
2022-10-28T23:30:28.604Z,13.89
2022-10-28T23:33:01.022Z,13.91
2022-10-28T23:35:30.064Z,13.94
2022-10-28T23:38:01.467Z,13.98
2022-10-28T23:40:32.262Z,14.02
2022-10-28T23:43:03.373Z,14.04
2022-10-28T23:45:34.220Z,14.01
2022-10-28T23:48:04.880Z,14.01
2022-10-28T23:50:36.586Z,14.04
2022-10-28T23:53:07.229Z,14.07
2022-10-28T23:55:37.840Z,14.10
2022-10-28T23:58:08.394Z,14.13
